sensor_id;sensor_type;location;lat;lon;timestamp;pressure;altitude;pressure_sealevel;temperature;humidity
60832;BME280;46665;51.558;-0.448;2024-03-08T00:01:10;100898.59;;;4.97;100.00
60832;BME280;46665;51.558;-0.448;2024-03-08T00:03:54;100894.03;;;4.98;100.00
60832;BME280;46665;51.558;-0.448;2024-03-08T00:06:38;100902.59;;;4.95;100.00
60832;BME280;46665;51.558;-0.448;2024-03-08T00:09:23;100898.50;;;4.92;100.00
60832;BME280;46665;51.558;-0.448;2024-03-08T00:12:07;100899.31;;;4.93;100.00
60832;BME280;46665;51.558;-0.448;2024-03-08T00:14:51;100887.13;;;4.90;100.00
60832;BME280;46665;51.558;-0.448;2024-03-08T00:17:36;100891.69;;;4.90;100.00
60832;BME280;46665;51.558;-0.448;2024-03-08T00:20:20;100887.72;;;4.92;100.00
60832;BME280;46665;51.558;-0.448;2024-03-08T00:23:04;100870.34;;;4.88;100.00
60832;BME280;46665;51.558;-0.448;2024-03-08T00:25:48;100883.59;;;4.90;100.00
60832;BME280;46665;51.558;-0.448;2024-03-08T00:28:32;100860.03;;;4.85;100.00
60832;BME280;46665;51.558;-0.448;2024-03-08T00:31:18;100872.00;;;4.89;100.00
60832;BME280;46665;51.558;-0.448;2024-03-08T00:34:02;100863.31;;;4.87;100.00
60832;BME280;46665;51.558;-0.448;2024-03-08T00:36:46;100857.34;;;4.85;100.00
60832;BME280;46665;51.558;-0.448;2024-03-08T00:39:30;100854.91;;;4.84;100.00
60832;BME280;46665;51.558;-0.448;2024-03-08T00:42:14;100857.03;;;4.82;100.00
60832;BME280;46665;51.558;-0.448;2024-03-08T00:44:59;100854.91;;;4.84;100.00
60832;BME280;46665;51.558;-0.448;2024-03-08T00:47:43;100844.84;;;4.79;100.00
60832;BME280;46665;51.558;-0.448;2024-03-08T00:50:27;100844.84;;;4.79;100.00
60832;BME280;46665;51.558;-0.448;2024-03-08T00:53:12;100840.25;;;4.80;100.00
60832;BME280;46665;51.558;-0.448;2024-03-08T00:55:56;100836.50;;;4.81;100.00
60832;BME280;46665;51.558;-0.448;2024-03-08T00:58:40;100824.88;;;4.80;100.00
60832;BME280;46665;51.558;-0.448;2024-03-08T01:01:24;100835.34;;;4.76;100.00
60832;BME280;46665;51.558;-0.448;2024-03-08T01:04:08;100836.97;;;4.77;100.00
60832;BME280;46665;51.558;-0.448;2024-03-08T01:06:52;100822.31;;;4.73;100.00
60832;BME280;46665;51.558;-0.448;2024-03-08T01:09:36;100834.50;;;4.76;100.00
60832;BME280;46665;51.558;-0.448;2024-03-08T01:12:20;100828.28;;;4.75;100.00
60832;BME280;46665;51.558;-0.448;2024-03-08T01:15:04;100810.72;;;4.73;100.00
60832;BME280;46665;51.558;-0.448;2024-03-08T01:17:49;100820.47;;;4.74;100.00
60832;BME280;46665;51.558;-0.448;2024-03-08T01:20:33;100812.81;;;4.71;100.00
60832;BME280;46665;51.558;-0.448;2024-03-08T01:23:17;100810.97;;;4.71;100.00
60832;BME280;46665;51.558;-0.448;2024-03-08T01:26:01;100803.69;;;4.72;100.00
60832;BME280;46665;51.558;-0.448;2024-03-08T01:28:45;100803.94;;;4.70;100.00
60832;BME280;46665;51.558;-0.448;2024-03-08T01:31:30;100794.44;;;4.68;100.00
60832;BME280;46665;51.558;-0.448;2024-03-08T01:34:14;100793.41;;;4.69;100.00
60832;BME280;46665;51.558;-0.448;2024-03-08T01:36:58;100786.34;;;4.68;100.00
60832;BME280;46665;51.558;-0.448;2024-03-08T01:39:43;100773.94;;;4.67;100.00
60832;BME280;46665;51.558;-0.448;2024-03-08T01:42:27;100780.25;;;4.72;100.00
60832;BME280;46665;51.558;-0.448;2024-03-08T01:45:11;100772.16;;;4.72;100.00
60832;BME280;46665;51.558;-0.448;2024-03-08T01:47:55;100762.09;;;4.68;100.00
60832;BME280;46665;51.558;-0.448;2024-03-08T01:50:39;100769.69;;;4.71;100.00
60832;BME280;46665;51.558;-0.448;2024-03-08T01:53:26;100756.69;;;4.68;100.00
60832;BME280;46665;51.558;-0.448;2024-03-08T01:56:12;100759.16;;;4.69;100.00
60832;BME280;46665;51.558;-0.448;2024-03-08T01:58:58;100748.38;;;4.69;100.00
60832;BME280;46665;51.558;-0.448;2024-03-08T02:01:42;100737.13;;;4.72;100.00
60832;BME280;46665;51.558;-0.448;2024-03-08T02:04:28;100746.03;;;4.73;100.00
60832;BME280;46665;51.558;-0.448;2024-03-08T02:07:14;100730.34;;;4.70;100.00
60832;BME280;46665;51.558;-0.448;2024-03-08T02:09:58;100729.84;;;4.73;100.00
60832;BME280;46665;51.558;-0.448;2024-03-08T02:12:42;100720.13;;;4.72;100.00
60832;BME280;46665;51.558;-0.448;2024-03-08T02:15:26;100727.16;;;4.73;100.00
60832;BME280;46665;51.558;-0.448;2024-03-08T02:18:10;100722.34;;;4.75;100.00
60832;BME280;46665;51.558;-0.448;2024-03-08T02:20:55;100718.84;;;4.74;100.00
60832;BME280;46665;51.558;-0.448;2024-03-08T02:23:39;100708.06;;;4.74;100.00
60832;BME280;46665;51.558;-0.448;2024-03-08T02:26:24;100695.63;;;4.73;100.00
60832;BME280;46665;51.558;-0.448;2024-03-08T02:29:09;100695.63;;;4.73;100.00
60832;BME280;46665;51.558;-0.448;2024-03-08T02:31:52;100693.75;;;4.74;100.00
60832;BME280;46665;51.558;-0.448;2024-03-08T02:34:36;100676.19;;;4.71;100.00
60832;BME280;46665;51.558;-0.448;2024-03-08T02:37:20;100672.44;;;4.72;100.00
60832;BME280;46665;51.558;-0.448;2024-03-08T02:40:04;100682.50;;;4.77;100.00
60832;BME280;46665;51.558;-0.448;2024-03-08T02:42:49;100674.63;;;4.75;100.00
60832;BME280;46665;51.558;-0.448;2024-03-08T02:45:33;100669.50;;;4.74;100.00
60832;BME280;46665;51.558;-0.448;2024-03-08T02:48:18;100673.00;;;4.74;100.00
60832;BME280;46665;51.558;-0.448;2024-03-08T02:51:02;100660.81;;;4.72;100.00
60832;BME280;46665;51.558;-0.448;2024-03-08T02:53:48;100660.34;;;4.75;100.00
60832;BME280;46665;51.558;-0.448;2024-03-08T02:56:35;100655.44;;;4.72;100.00
60832;BME280;46665;51.558;-0.448;2024-03-08T02:59:19;100658.13;;;4.72;100.00
60832;BME280;46665;51.558;-0.448;2024-03-08T03:02:03;100656.25;;;4.72;100.00
60832;BME280;46665;51.558;-0.448;2024-03-08T03:04:47;100647.09;;;4.73;100.00
60832;BME280;46665;51.558;-0.448;2024-03-08T03:07:34;100647.09;;;4.73;100.00
60832;BME280;46665;51.558;-0.448;2024-03-08T03:10:19;100644.88;;;4.70;100.00
60832;BME280;46665;51.558;-0.448;2024-03-08T03:13:03;100642.19;;;4.70;100.00
60832;BME280;46665;51.558;-0.448;2024-03-08T03:15:48;100639.16;;;4.67;100.00
60832;BME280;46665;51.558;-0.448;2024-03-08T03:18:33;100625.44;;;4.68;100.00
60832;BME280;46665;51.558;-0.448;2024-03-08T03:21:16;100629.69;;;4.64;100.00
60832;BME280;46665;51.558;-0.448;2024-03-08T03:24:01;100623.00;;;4.67;100.00
60832;BME280;46665;51.558;-0.448;2024-03-08T03:26:45;100620.78;;;4.64;100.00
60832;BME280;46665;51.558;-0.448;2024-03-08T03:29:29;100606.25;;;4.65;100.00
60832;BME280;46665;51.558;-0.448;2024-03-08T03:32:14;100611.06;;;4.63;100.00
60832;BME280;46665;51.558;-0.448;2024-03-08T03:34:58;100608.13;;;4.64;100.00
60832;BME280;46665;51.558;-0.448;2024-03-08T03:37:43;100604.03;;;4.62;100.00
60832;BME280;46665;51.558;-0.448;2024-03-08T03:40:39;100600.19;;;4.57;100.00
60832;BME280;46665;51.558;-0.448;2024-03-08T03:43:26;100604.53;;;4.59;100.00
60832;BME280;46665;51.558;-0.448;2024-03-08T03:46:10;100606.38;;;4.58;100.00
60832;BME280;46665;51.558;-0.448;2024-03-08T03:48:54;100594.78;;;4.57;100.00
60832;BME280;46665;51.558;-0.448;2024-03-08T03:51:39;100597.25;;;4.59;100.00
60832;BME280;46665;51.558;-0.448;2024-03-08T03:54:23;100584.59;;;4.60;100.00
60832;BME280;46665;51.558;-0.448;2024-03-08T03:57:07;100586.72;;;4.57;100.00
60832;BME280;46665;51.558;-0.448;2024-03-08T03:59:51;100590.22;;;4.58;100.00
60832;BME280;46665;51.558;-0.448;2024-03-08T04:02:40;100586.47;;;4.59;100.00
60832;BME280;46665;51.558;-0.448;2024-03-08T04:05:24;100581.91;;;4.60;100.00
60832;BME280;46665;51.558;-0.448;2024-03-08T04:08:09;100581.09;;;4.59;100.00
60832;BME280;46665;51.558;-0.448;2024-03-08T04:10:52;100580.75;;;4.55;100.00
60832;BME280;46665;51.558;-0.448;2024-03-08T04:13:37;100582.88;;;4.53;100.00
60832;BME280;46665;51.558;-0.448;2024-03-08T04:16:21;100596.34;;;4.53;100.00
60832;BME280;46665;51.558;-0.448;2024-03-08T04:19:05;100583.94;;;4.52;100.00
60832;BME280;46665;51.558;-0.448;2024-03-08T04:21:49;100577.41;;;4.48;100.00
60832;BME280;46665;51.558;-0.448;2024-03-08T04:24:33;100586.88;;;4.51;100.00
60832;BME280;46665;51.558;-0.448;2024-03-08T04:27:17;100570.13;;;4.49;100.00
60832;BME280;46665;51.558;-0.448;2024-03-08T04:30:02;100564.16;;;4.47;100.00
60832;BME280;46665;51.558;-0.448;2024-03-08T04:32:46;100566.75;;;4.42;100.00
60832;BME280;46665;51.558;-0.448;2024-03-08T04:35:31;100569.69;;;4.40;100.00
60832;BME280;46665;51.558;-0.448;2024-03-08T04:38:15;100558.34;;;4.38;100.00
60832;BME280;46665;51.558;-0.448;2024-03-08T04:40:59;100565.59;;;4.38;100.00
60832;BME280;46665;51.558;-0.448;2024-03-08T04:43:45;100564.78;;;4.37;100.00
60832;BME280;46665;51.558;-0.448;2024-03-08T04:46:29;100553.44;;;4.35;100.00
60832;BME280;46665;51.558;-0.448;2024-03-08T04:49:13;100557.19;;;4.34;100.00
60832;BME280;46665;51.558;-0.448;2024-03-08T04:51:57;100555.31;;;4.34;100.00
60832;BME280;46665;51.558;-0.448;2024-03-08T04:54:42;100545.63;;;4.33;100.00
60832;BME280;46665;51.558;-0.448;2024-03-08T04:57:26;100543.72;;;4.34;100.00
60832;BME280;46665;51.558;-0.448;2024-03-08T05:00:11;100538.34;;;4.34;100.00
60832;BME280;46665;51.558;-0.448;2024-03-08T05:02:55;100540.81;;;4.36;100.00
60832;BME280;46665;51.558;-0.448;2024-03-08T05:05:39;100545.63;;;4.33;100.00
60832;BME280;46665;51.558;-0.448;2024-03-08T05:08:23;100542.09;;;4.33;100.00
60832;BME280;46665;51.558;-0.448;2024-03-08T05:11:07;100542.34;;;4.31;100.00
60832;BME280;46665;51.558;-0.448;2024-03-08T05:13:51;100539.41;;;4.33;100.00
60832;BME280;46665;51.558;-0.448;2024-03-08T05:16:35;100526.97;;;4.32;100.00
60832;BME280;46665;51.558;-0.448;2024-03-08T05:19:20;100524.06;;;4.33;100.00
60832;BME280;46665;51.558;-0.448;2024-03-08T05:22:04;100519.47;;;4.34;100.00
60832;BME280;46665;51.558;-0.448;2024-03-08T05:24:48;100519.16;;;4.30;100.00
60832;BME280;46665;51.558;-0.448;2024-03-08T05:27:32;100508.13;;;4.32;100.00
60832;BME280;46665;51.558;-0.448;2024-03-08T05:30:16;100500.03;;;4.32;100.00
60832;BME280;46665;51.558;-0.448;2024-03-08T05:33:00;100494.66;;;4.32;100.00
60832;BME280;46665;51.558;-0.448;2024-03-08T05:35:44;100492.31;;;4.36;100.00
60832;BME280;46665;51.558;-0.448;2024-03-08T05:38:28;100487.72;;;4.36;100.00
60832;BME280;46665;51.558;-0.448;2024-03-08T05:41:12;100483.75;;;4.39;100.00
60832;BME280;46665;51.558;-0.448;2024-03-08T05:43:56;100480.31;;;4.43;100.00
60832;BME280;46665;51.558;-0.448;2024-03-08T05:46:40;100486.34;;;4.50;100.00
60832;BME280;46665;51.558;-0.448;2024-03-08T05:49:24;100483.25;;;4.59;100.00
60832;BME280;46665;51.558;-0.448;2024-03-08T05:52:08;100480.88;;;4.62;100.00
60832;BME280;46665;51.558;-0.448;2024-03-08T05:54:53;100476.06;;;4.64;100.00
60832;BME280;46665;51.558;-0.448;2024-03-08T05:57:37;100478.25;;;4.67;100.00
60832;BME280;46665;51.558;-0.448;2024-03-08T06:00:23;100478.34;;;4.72;100.00
60832;BME280;46665;51.558;-0.448;2024-03-08T06:03:07;100477.84;;;4.75;100.00
60832;BME280;46665;51.558;-0.448;2024-03-08T06:05:51;100471.63;;;4.75;100.00
60832;BME280;46665;51.558;-0.448;2024-03-08T06:08:36;100462.16;;;4.72;100.00
60832;BME280;46665;51.558;-0.448;2024-03-08T06:11:20;100462.16;;;4.72;100.00
60832;BME280;46665;51.558;-0.448;2024-03-08T06:14:04;100456.19;;;4.70;100.00
60832;BME280;46665;51.558;-0.448;2024-03-08T06:16:48;100457.50;;;4.68;100.00
60832;BME280;46665;51.558;-0.448;2024-03-08T06:19:34;100458.59;;;4.67;100.00
60832;BME280;46665;51.558;-0.448;2024-03-08T06:22:20;100452.38;;;4.66;100.00
60832;BME280;46665;51.558;-0.448;2024-03-08T06:25:04;100447.22;;;4.65;100.00
60832;BME280;46665;51.558;-0.448;2024-03-08T06:27:48;100445.69;;;4.69;100.00
60832;BME280;46665;51.558;-0.448;2024-03-08T06:30:32;100447.88;;;4.72;100.00
60832;BME280;46665;51.558;-0.448;2024-03-08T06:33:16;100444.09;;;4.73;100.00
60832;BME280;46665;51.558;-0.448;2024-03-08T06:36:00;100441.47;;;4.78;100.00
60832;BME280;46665;51.558;-0.448;2024-03-08T06:38:45;100444.53;;;4.82;100.00
60832;BME280;46665;51.558;-0.448;2024-03-08T06:41:30;100442.13;;;4.85;100.00
60832;BME280;46665;51.558;-0.448;2024-03-08T06:44:15;100445.72;;;4.91;100.00
60832;BME280;46665;51.558;-0.448;2024-03-08T06:47:00;100429.28;;;4.92;100.00
60832;BME280;46665;51.558;-0.448;2024-03-08T06:49:44;100423.91;;;4.92;100.00
60832;BME280;46665;51.558;-0.448;2024-03-08T06:52:28;100427.97;;;4.95;100.00
60832;BME280;46665;51.558;-0.448;2024-03-08T06:55:12;100431.25;;;4.97;100.00
60832;BME280;46665;51.558;-0.448;2024-03-08T06:57:56;100425.84;;;4.97;100.00
60832;BME280;46665;51.558;-0.448;2024-03-08T07:00:40;100433.69;;;4.98;100.00
60832;BME280;46665;51.558;-0.448;2024-03-08T07:03:24;100426.66;;;4.97;100.00
60832;BME280;46665;51.558;-0.448;2024-03-08T07:06:08;100434.81;;;5.03;100.00
60832;BME280;46665;51.558;-0.448;2024-03-08T07:08:53;100429.44;;;5.03;100.00
60832;BME280;46665;51.558;-0.448;2024-03-08T07:11:36;100426.00;;;5.07;100.00
60832;BME280;46665;51.558;-0.448;2024-03-08T07:14:24;100434.38;;;5.11;100.00
60832;BME280;46665;51.558;-0.448;2024-03-08T07:17:08;100423.09;;;5.14;100.00
60832;BME280;46665;51.558;-0.448;2024-03-08T07:19:52;100437.16;;;5.16;100.00
60832;BME280;46665;51.558;-0.448;2024-03-08T07:22:38;100426.44;;;5.21;100.00
60832;BME280;46665;51.558;-0.448;2024-03-08T07:25:22;100428.06;;;5.22;100.00
60832;BME280;46665;51.558;-0.448;2024-03-08T07:28:07;100433.78;;;5.26;100.00
60832;BME280;46665;51.558;-0.448;2024-03-08T07:30:51;100445.44;;;5.31;100.00
60832;BME280;46665;51.558;-0.448;2024-03-08T07:33:35;100435.78;;;5.35;100.00
60832;BME280;46665;51.558;-0.448;2024-03-08T07:36:19;100428.25;;;5.37;100.00
60832;BME280;46665;51.558;-0.448;2024-03-08T07:39:03;100429.88;;;5.38;100.00
60832;BME280;46665;51.558;-0.448;2024-03-08T07:41:49;100427.19;;;5.38;100.00
60832;BME280;46665;51.558;-0.448;2024-03-08T07:44:36;100426.66;;;5.41;100.00
60832;BME280;46665;51.558;-0.448;2024-03-08T07:47:20;100419.94;;;5.44;100.00
60832;BME280;46665;51.558;-0.448;2024-03-08T07:50:04;100422.16;;;5.47;100.00
60832;BME280;46665;51.558;-0.448;2024-03-08T07:52:48;100424.59;;;5.49;100.00
60832;BME280;46665;51.558;-0.448;2024-03-08T07:55:33;100423.03;;;5.53;100.00
60832;BME280;46665;51.558;-0.448;2024-03-08T07:58:18;100412.81;;;5.55;100.00
60832;BME280;46665;51.558;-0.448;2024-03-08T08:01:02;100410.41;;;5.58;100.00
60832;BME280;46665;51.558;-0.448;2024-03-08T08:03:47;100408.56;;;5.64;100.00
60832;BME280;46665;51.558;-0.448;2024-03-08T08:06:32;100418.03;;;5.67;100.00
60832;BME280;46665;51.558;-0.448;2024-03-08T08:09:17;100405.13;;;5.69;100.00
60832;BME280;46665;51.558;-0.448;2024-03-08T08:12:12;100407.00;;;5.68;100.00
60832;BME280;46665;51.558;-0.448;2024-03-08T08:14:56;100406.81;;;5.75;100.00
60832;BME280;46665;51.558;-0.448;2024-03-08T08:17:44;100403.84;;;5.76;100.00
60832;BME280;46665;51.558;-0.448;2024-03-08T08:20:28;100411.47;;;5.84;100.00
60832;BME280;46665;51.558;-0.448;2024-03-08T08:23:12;100404.50;;;5.89;100.00
60832;BME280;46665;51.558;-0.448;2024-03-08T08:25:59;100404.50;;;5.89;100.00
60832;BME280;46665;51.558;-0.448;2024-03-08T08:28:43;100394.78;;;5.88;100.00
60832;BME280;46665;51.558;-0.448;2024-03-08T08:31:27;100392.94;;;5.93;100.00
60832;BME280;46665;51.558;-0.448;2024-03-08T08:34:10;100385.44;;;5.95;100.00
60832;BME280;46665;51.558;-0.448;2024-03-08T08:36:55;100390.88;;;6.00;100.00
60832;BME280;46665;51.558;-0.448;2024-03-08T08:39:39;100385.75;;;6.04;100.00
60832;BME280;46665;51.558;-0.448;2024-03-08T08:42:24;100389.28;;;6.04;100.00
60832;BME280;46665;51.558;-0.448;2024-03-08T08:45:09;100387.19;;;6.12;100.00
60832;BME280;46665;51.558;-0.448;2024-03-08T08:47:53;100381.25;;;6.15;100.00
60832;BME280;46665;51.558;-0.448;2024-03-08T08:50:39;100378.09;;;6.23;100.00
60832;BME280;46665;51.558;-0.448;2024-03-08T08:53:23;100377.84;;;6.29;100.00
60832;BME280;46665;51.558;-0.448;2024-03-08T08:56:07;100372.44;;;6.29;100.00
60832;BME280;46665;51.558;-0.448;2024-03-08T08:58:52;100368.44;;;6.37;100.00
60832;BME280;46665;51.558;-0.448;2024-03-08T09:01:37;100373.66;;;6.44;100.00
60832;BME280;46665;51.558;-0.448;2024-03-08T09:04:21;100368.28;;;6.49;100.00
60832;BME280;46665;51.558;-0.448;2024-03-08T09:07:05;100372.34;;;6.51;100.00
60832;BME280;46665;51.558;-0.448;2024-03-08T09:09:52;100359.13;;;6.60;100.00
60832;BME280;46665;51.558;-0.448;2024-03-08T09:12:40;100350.28;;;6.70;100.00
60832;BME280;46665;51.558;-0.448;2024-03-08T09:15:25;100351.63;;;6.72;100.00
60832;BME280;46665;51.558;-0.448;2024-03-08T09:18:12;100347.34;;;6.77;100.00
60832;BME280;46665;51.558;-0.448;2024-03-08T09:20:56;100331.69;;;6.79;100.00
60832;BME280;46665;51.558;-0.448;2024-03-08T09:23:40;100329.28;;;6.87;100.00
60832;BME280;46665;51.558;-0.448;2024-03-08T09:26:25;100328.75;;;6.95;100.00
60832;BME280;46665;51.558;-0.448;2024-03-08T09:29:09;100325.28;;;7.05;100.00
60832;BME280;46665;51.558;-0.448;2024-03-08T09:31:54;100327.19;;;7.10;100.00
60832;BME280;46665;51.558;-0.448;2024-03-08T09:34:39;100325.31;;;7.21;100.00
60832;BME280;46665;51.558;-0.448;2024-03-08T09:37:24;100318.56;;;7.28;100.00
60832;BME280;46665;51.558;-0.448;2024-03-08T09:40:08;100317.25;;;7.36;100.00
60832;BME280;46665;51.558;-0.448;2024-03-08T09:42:59;100312.63;;;7.36;100.00
60832;BME280;46665;51.558;-0.448;2024-03-08T09:45:43;100317.78;;;7.38;100.00
60832;BME280;46665;51.558;-0.448;2024-03-08T09:48:30;100303.16;;;7.39;100.00
60832;BME280;46665;51.558;-0.448;2024-03-08T09:51:14;100304.81;;;7.40;100.00
60832;BME280;46665;51.558;-0.448;2024-03-08T09:53:59;100286.66;;;7.35;100.00
60832;BME280;46665;51.558;-0.448;2024-03-08T09:56:43;100290.97;;;7.31;100.00
60832;BME280;46665;51.558;-0.448;2024-03-08T09:59:28;100287.75;;;7.34;100.00
60832;BME280;46665;51.558;-0.448;2024-03-08T10:02:14;100273.38;;;7.29;100.00
60832;BME280;46665;51.558;-0.448;2024-03-08T10:04:59;100275.81;;;7.25;100.00
60832;BME280;46665;51.558;-0.448;2024-03-08T10:07:43;100271.22;;;7.26;100.00
60832;BME280;46665;51.558;-0.448;2024-03-08T10:10:27;100256.06;;;7.30;100.00
60832;BME280;46665;51.558;-0.448;2024-03-08T10:13:11;100250.91;;;7.33;100.00
60832;BME280;46665;51.558;-0.448;2024-03-08T10:15:57;100245.25;;;7.40;100.00
60832;BME280;46665;51.558;-0.448;2024-03-08T10:18:41;100247.97;;;7.45;100.00
60832;BME280;46665;51.558;-0.448;2024-03-08T10:21:25;100244.47;;;7.55;100.00
60832;BME280;46665;51.558;-0.448;2024-03-08T10:24:10;100245.81;;;7.57;100.00
60832;BME280;46665;51.558;-0.448;2024-03-08T10:27:01;100231.97;;;7.64;100.00
60832;BME280;46665;51.558;-0.448;2024-03-08T10:29:48;100216.81;;;7.63;98.51
60832;BME280;46665;51.558;-0.448;2024-03-08T10:32:32;100226.56;;;7.69;99.27
60832;BME280;46665;51.558;-0.448;2024-03-08T10:35:17;100221.97;;;7.80;98.31
60832;BME280;46665;51.558;-0.448;2024-03-08T10:38:04;100220.88;;;7.86;97.70
60832;BME280;46665;51.558;-0.448;2024-03-08T10:40:51;100214.63;;;7.96;98.82
60832;BME280;46665;51.558;-0.448;2024-03-08T10:52:58;100182.00;;;8.27;96.30
60832;BME280;46665;51.558;-0.448;2024-03-08T10:55:46;100179.28;;;8.32;94.15
60832;BME280;46665;51.558;-0.448;2024-03-08T10:58:31;100182.50;;;8.39;94.50
60832;BME280;46665;51.558;-0.448;2024-03-08T11:01:15;100183.88;;;8.41;90.31
60832;BME280;46665;51.558;-0.448;2024-03-08T11:03:59;100174.91;;;8.51;89.04
60832;BME280;46665;51.558;-0.448;2024-03-08T11:06:50;100172.44;;;8.55;89.35
60832;BME280;46665;51.558;-0.448;2024-03-08T11:09:38;100171.06;;;8.57;87.33
60832;BME280;46665;51.558;-0.448;2024-03-08T11:12:27;100165.91;;;8.61;85.46
60832;BME280;46665;51.558;-0.448;2024-03-08T11:15:16;100167.25;;;8.63;84.27
60832;BME280;46665;51.558;-0.448;2024-03-08T11:18:02;100163.13;;;8.71;85.52
60832;BME280;46665;51.558;-0.448;2024-03-08T11:20:49;100160.34;;;8.81;85.28
60832;BME280;46665;51.558;-0.448;2024-03-08T11:23:34;100155.69;;;8.87;84.25
60832;BME280;46665;51.558;-0.448;2024-03-08T11:26:20;100143.38;;;9.05;85.94
60832;BME280;46665;51.558;-0.448;2024-03-08T11:32:19;100139.88;;;9.33;81.57
60832;BME280;46665;51.558;-0.448;2024-03-08T11:35:07;100136.31;;;9.38;79.62
60832;BME280;46665;51.558;-0.448;2024-03-08T11:37:52;100145.69;;;9.51;78.59
60832;BME280;46665;51.558;-0.448;2024-03-08T11:40:39;100141.59;;;9.53;77.67
60832;BME280;46665;51.558;-0.448;2024-03-08T11:43:24;100136.09;;;9.59;76.89
60832;BME280;46665;51.558;-0.448;2024-03-08T11:46:09;100138.25;;;9.62;76.43
60832;BME280;46665;51.558;-0.448;2024-03-08T11:48:54;100136.84;;;9.64;73.68
60832;BME280;46665;51.558;-0.448;2024-03-08T11:51:40;100128.72;;;9.64;73.91
60832;BME280;46665;51.558;-0.448;2024-03-08T11:54:25;100126.56;;;9.61;72.57
60832;BME280;46665;51.558;-0.448;2024-03-08T11:57:09;100116.56;;;9.57;71.41
60832;BME280;46665;51.558;-0.448;2024-03-08T11:59:56;100106.53;;;9.57;71.07
60832;BME280;46665;51.558;-0.448;2024-03-08T12:03:03;100091.09;;;9.52;69.41
60832;BME280;46665;51.558;-0.448;2024-03-08T12:05:57;100097.06;;;9.54;69.46
60832;BME280;46665;51.558;-0.448;2024-03-08T12:08:43;100082.59;;;9.59;69.68
60832;BME280;46665;51.558;-0.448;2024-03-08T12:11:27;100093.44;;;9.59;68.35
60832;BME280;46665;51.558;-0.448;2024-03-08T12:14:11;100086.94;;;9.60;68.71
60832;BME280;46665;51.558;-0.448;2024-03-08T12:16:55;100062.72;;;9.64;70.48
60832;BME280;46665;51.558;-0.448;2024-03-08T12:19:40;100078.38;;;9.72;70.03
60832;BME280;46665;51.558;-0.448;2024-03-08T12:22:26;100069.88;;;9.79;70.80
60832;BME280;46665;51.558;-0.448;2024-03-08T12:25:12;100068.97;;;9.88;71.40
60832;BME280;46665;51.558;-0.448;2024-03-08T12:27:56;100081.97;;;9.91;68.54
60832;BME280;46665;51.558;-0.448;2024-03-08T12:30:51;100079.50;;;9.90;66.78
60832;BME280;46665;51.558;-0.448;2024-03-08T12:34:00;100080.84;;;9.92;68.45
60832;BME280;46665;51.558;-0.448;2024-03-08T12:36:45;100066.81;;;9.85;67.35
60832;BME280;46665;51.558;-0.448;2024-03-08T12:39:31;100068.38;;;9.91;68.54
60832;BME280;46665;51.558;-0.448;2024-03-08T12:42:15;100059.00;;;10.03;68.63
60832;BME280;46665;51.558;-0.448;2024-03-08T12:44:58;100060.25;;;10.10;68.47
60832;BME280;46665;51.558;-0.448;2024-03-08T12:47:43;100059.53;;;10.24;68.35
60832;BME280;46665;51.558;-0.448;2024-03-08T12:50:28;100054.25;;;10.32;68.76
60832;BME280;46665;51.558;-0.448;2024-03-08T12:53:14;100044.56;;;10.45;67.47
60832;BME280;46665;51.558;-0.448;2024-03-08T12:55:58;100045.06;;;10.47;65.94
60832;BME280;46665;51.558;-0.448;2024-03-08T12:58:42;100034.72;;;10.49;65.31
60832;BME280;46665;51.558;-0.448;2024-03-08T13:01:27;100036.56;;;10.54;67.28
60832;BME280;46665;51.558;-0.448;2024-03-08T13:04:11;100034.56;;;10.59;65.91
60832;BME280;46665;51.558;-0.448;2024-03-08T13:06:55;100026.03;;;10.66;65.57
60832;BME280;46665;51.558;-0.448;2024-03-08T13:09:39;100021.00;;;10.73;66.46
60832;BME280;46665;51.558;-0.448;2024-03-08T13:12:23;100012.97;;;10.82;66.22
60832;BME280;46665;51.558;-0.448;2024-03-08T13:15:11;100012.66;;;10.83;63.66
60832;BME280;46665;51.558;-0.448;2024-03-08T13:17:59;100012.97;;;10.82;63.43
60832;BME280;46665;51.558;-0.448;2024-03-08T13:20:44;100005.81;;;10.86;63.54
60832;BME280;46665;51.558;-0.448;2024-03-08T13:23:33;100007.97;;;10.89;63.58
60832;BME280;46665;51.558;-0.448;2024-03-08T13:26:22;100019.13;;;10.88;63.33
60832;BME280;46665;51.558;-0.448;2024-03-08T13:29:09;100000.78;;;10.79;62.42
60832;BME280;46665;51.558;-0.448;2024-03-08T13:31:53;99994.00;;;10.77;62.37
60832;BME280;46665;51.558;-0.448;2024-03-08T13:34:43;99994.31;;;10.75;63.51
60832;BME280;46665;51.558;-0.448;2024-03-08T13:37:29;99992.28;;;10.81;63.96
60832;BME280;46665;51.558;-0.448;2024-03-08T13:40:13;99983.66;;;10.79;63.39
60832;BME280;46665;51.558;-0.448;2024-03-08T13:42:57;99984.53;;;10.74;62.63
60832;BME280;46665;51.558;-0.448;2024-03-08T13:45:45;99977.16;;;10.75;61.88
60832;BME280;46665;51.558;-0.448;2024-03-08T13:48:29;99967.59;;;10.77;62.79
60832;BME280;46665;51.558;-0.448;2024-03-08T13:51:14;99964.06;;;10.77;63.64
60832;BME280;46665;51.558;-0.448;2024-03-08T13:54:01;99960.47;;;10.81;62.65
60832;BME280;46665;51.558;-0.448;2024-03-08T13:56:45;99958.53;;;10.82;62.99
60832;BME280;46665;51.558;-0.448;2024-03-08T13:59:31;99952.78;;;10.83;62.82
60832;BME280;46665;51.558;-0.448;2024-03-08T14:02:16;99941.31;;;10.87;62.91
60832;BME280;46665;51.558;-0.448;2024-03-08T14:05:01;99944.44;;;10.94;64.63
60832;BME280;46665;51.558;-0.448;2024-03-08T14:07:46;99940.81;;;10.98;66.26
60832;BME280;46665;51.558;-0.448;2024-03-08T14:10:33;99937.31;;;11.12;65.49
60832;BME280;46665;51.558;-0.448;2024-03-08T14:13:18;99929.84;;;11.17;63.06
60832;BME280;46665;51.558;-0.448;2024-03-08T14:16:02;99936.81;;;11.23;64.31
60832;BME280;46665;51.558;-0.448;2024-03-08T14:18:47;99928.75;;;11.32;64.16
60832;BME280;46665;51.558;-0.448;2024-03-08T14:21:32;99929.34;;;11.43;64.84
60832;BME280;46665;51.558;-0.448;2024-03-08T14:24:16;99927.72;;;11.56;65.27
60832;BME280;46665;51.558;-0.448;2024-03-08T14:27:01;99928.50;;;11.70;64.70